Pagina principale
METAR-TAF:

METAR-TAF

Aeroporti :

Aeroporto di Bratislava-M.R. Štefánik

Bratislava, Slovacchia

latitudine: 48-12N, longitudine: 017-12E, altezza: 133 m

Osservazione

Il bollettino è stato emesso 42 minuti fa, alle 12:00 UTC
Vento 3 kt da direzioni variabili
Temperature 26°C
Umidità 48%
Pressione 1016 hPa
Visibilità 10 km o più
Poco nuvoloso ad un'altezza di 4600 ft

METAR: LZIB 171200Z VRB03KT 9999 FEW046 26/14 Q1016 NOSIG

Ora: 14:42 (12:42 UTC)

Previsione

Il bollettino è stato emesso 1 ora e 27 minuti fa, alle 11:15 UTC
Previsione valida dal 17 alle 12 UTC al 18 alle 12 UTC
Vento 5 kt da sud
Visibilità 10 km o più
nessuna nube inferiore a 1500 m e nessun cumulonembo
Temporaneamente
dal 17 alle 12 UTC al 17 alle 15 UTC
Visibilità 10 km o più
Nubi sparse ad un'altezza di 4500 ft
Temporaneamente
dal 18 alle 09 UTC al 18 alle 12 UTC
Vento 18 kt da sud/sud-ovest

TAF: LZIB 171115Z 1712/1812 18005KT CAVOK TEMPO 1712/1715 9999 SCT045 TEMPO 1809/1812 21018KT

Osservazioni e previsioni meteorologiche di più di 4000 aeroporti (messaggi METAR e TAF).

Le stazioni disponibili sono rappresentate dai dischi gialli e rossi sulla carta.

Puntare il mouse per vedere il nome della stazione.

Clicca sopra per visualizzare le osservazioni e previsioni meteorologiche.

Per cambiare la mappa : fare clic sui pulsanti verdi con una croce nera per ingrandire, il pulsante verde con un trattino per diminuire, o sulla freccia verde per le mappe adiacenti.


METAR-TAF: